createdAt,value
2022-12-11T00:01:21.702Z,99.90
2022-12-11T00:04:25.235Z,99.90
2022-12-11T00:07:29.823Z,99.90
2022-12-11T00:10:37.515Z,99.90
2022-12-11T00:13:40.985Z,99.90
2022-12-11T00:16:44.163Z,99.90
2022-12-11T00:19:47.327Z,99.90
2022-12-11T00:22:51.765Z,99.90
2022-12-11T00:25:54.905Z,99.90
2022-12-11T00:28:59.151Z,99.90
2022-12-11T00:32:02.323Z,99.90
2022-12-11T00:35:06.016Z,99.90
2022-12-11T00:38:15.053Z,99.90
2022-12-11T00:41:19.035Z,99.90
2022-12-11T00:44:22.335Z,99.90
2022-12-11T00:47:25.421Z,99.90
2022-12-11T00:50:28.690Z,99.90
2022-12-11T00:53:33.241Z,99.90
2022-12-11T00:56:37.595Z,99.90
2022-12-11T00:59:40.865Z,99.90
2022-12-11T01:02:43.996Z,99.90
2022-12-11T01:05:53.935Z,99.90
2022-12-11T01:09:12.600Z,99.90
2022-12-11T01:12:15.799Z,99.90
2022-12-11T01:15:19.436Z,99.90
2022-12-11T01:18:22.583Z,99.90
2022-12-11T01:21:25.723Z,99.90
2022-12-11T01:24:30.204Z,99.90
2022-12-11T01:27:33.332Z,99.60
2022-12-11T01:30:36.938Z,99.30
2022-12-11T01:33:41.174Z,98.30
2022-12-11T01:36:44.329Z,98.30
2022-12-11T01:39:48.866Z,98.90
2022-12-11T01:42:52.335Z,98.70
2022-12-11T01:45:55.654Z,98.70
2022-12-11T01:48:59.950Z,98.40
2022-12-11T01:52:07.423Z,98.30
2022-12-11T01:55:12.430Z,98.40
2022-12-11T01:58:17.472Z,97.40
2022-12-11T02:01:28.244Z,97.50
2022-12-11T02:04:32.340Z,96.80
2022-12-11T02:07:41.188Z,97.50
2022-12-11T02:10:57.333Z,97.60
2022-12-11T02:14:09.671Z,97.50
2022-12-11T02:17:15.909Z,97.20
2022-12-11T02:20:25.211Z,97.40
2022-12-11T02:24:13.301Z,96.40
2022-12-11T02:27:28.224Z,96.50
2022-12-11T02:30:34.953Z,96.10
2022-12-11T02:33:45.329Z,97.00
2022-12-11T02:36:52.203Z,97.10
2022-12-11T02:39:57.289Z,96.40
2022-12-11T02:43:05.271Z,96.80
2022-12-11T02:46:10.119Z,95.90
2022-12-11T02:49:14.629Z,95.60
2022-12-11T02:52:23.355Z,95.50
2022-12-11T02:55:29.246Z,94.50
2022-12-11T02:58:34.268Z,94.90
2022-12-11T03:01:38.813Z,95.00
2022-12-11T03:04:42.932Z,94.80
2022-12-11T03:07:46.636Z,94.60
2022-12-11T03:10:49.758Z,95.20
2022-12-11T03:13:53.695Z,94.40
2022-12-11T03:17:06.172Z,95.10
2022-12-11T03:20:13.789Z,94.50
2022-12-11T03:23:22.335Z,94.80
2022-12-11T03:26:26.622Z,95.10
2022-12-11T03:29:36.364Z,95.20
2022-12-11T03:32:48.835Z,95.20
2022-12-11T03:35:56.096Z,94.90
2022-12-11T03:39:02.114Z,95.60
2022-12-11T03:42:09.381Z,95.20
2022-12-11T03:45:14.138Z,95.70
2022-12-11T03:48:19.963Z,96.50
2022-12-11T03:51:24.258Z,96.70
2022-12-11T03:54:28.561Z,97.20
2022-12-11T03:57:36.473Z,97.30
2022-12-11T04:00:39.864Z,98.00
2022-12-11T04:03:44.378Z,97.30
2022-12-11T04:06:47.689Z,97.40
2022-12-11T04:09:50.812Z,97.30
2022-12-11T04:12:53.938Z,97.40
2022-12-11T04:15:56.068Z,97.20
2022-12-11T04:19:18.193Z,96.90
2022-12-11T04:22:38.673Z,96.50
2022-12-11T04:25:41.807Z,96.70
2022-12-11T04:28:46.309Z,97.10
2022-12-11T04:31:50.732Z,97.00
2022-12-11T04:34:55.337Z,96.90
2022-12-11T04:37:58.653Z,96.60
2022-12-11T04:41:02.258Z,96.60
2022-12-11T04:44:05.711Z,96.60
2022-12-11T04:47:08.882Z,96.40
2022-12-11T04:50:15.396Z,96.40
2022-12-11T04:53:18.476Z,96.10
2022-12-11T04:56:22.141Z,95.70
2022-12-11T04:59:25.525Z,95.40
2022-12-11T05:02:28.701Z,95.20
2022-12-11T05:05:33.174Z,94.70
2022-12-11T05:08:38.637Z,93.30
2022-12-11T05:11:42.180Z,93.00
2022-12-11T05:14:45.316Z,92.60
2022-12-11T05:17:48.399Z,93.00
2022-12-11T05:20:57.979Z,92.90
2022-12-11T05:24:01.102Z,91.90
2022-12-11T05:27:04.206Z,91.00
2022-12-11T05:30:10.160Z,91.30
2022-12-11T05:33:13.479Z,91.90
2022-12-11T05:36:20.226Z,91.50
2022-12-11T05:39:23.303Z,90.90
2022-12-11T05:42:28.981Z,90.60
2022-12-11T05:45:32.395Z,90.40
2022-12-11T05:48:36.286Z,90.00
2022-12-11T05:51:41.409Z,90.40
2022-12-11T05:54:44.545Z,90.00
2022-12-11T05:57:47.672Z,90.00
2022-12-11T06:00:50.796Z,90.10
2022-12-11T06:03:55.290Z,88.80
2022-12-11T06:06:59.787Z,88.50
2022-12-11T06:10:02.886Z,88.90
2022-12-11T06:13:06.035Z,88.10
2022-12-11T06:16:10.526Z,86.40
2022-12-11T06:19:15.828Z,88.50
2022-12-11T06:22:20.300Z,87.70
2022-12-11T06:25:23.434Z,87.10
2022-12-11T06:28:26.521Z,86.40
2022-12-11T06:31:29.948Z,85.90
2022-12-11T06:34:33.096Z,86.40
2022-12-11T06:37:38.386Z,87.00
2022-12-11T06:40:41.485Z,85.90
2022-12-11T06:43:45.045Z,84.80
2022-12-11T06:46:48.151Z,84.60
2022-12-11T06:49:51.253Z,86.00
2022-12-11T06:52:56.922Z,84.70
2022-12-11T06:56:03.924Z,84.80
2022-12-11T06:59:07.720Z,84.40
2022-12-11T07:02:13.779Z,84.20
2022-12-11T07:05:16.975Z,85.20
2022-12-11T07:08:21.497Z,84.20
2022-12-11T07:11:25.096Z,84.20
2022-12-11T07:14:28.334Z,84.00
2022-12-11T07:17:31.807Z,84.90
2022-12-11T07:20:34.896Z,83.70
2022-12-11T07:23:39.799Z,83.60
2022-12-11T07:26:42.926Z,82.00
2022-12-11T07:29:46.080Z,82.90
2022-12-11T07:32:49.169Z,82.80
2022-12-11T07:35:52.314Z,81.80
2022-12-11T07:38:57.482Z,79.90
2022-12-11T07:42:00.562Z,80.70
2022-12-11T07:45:03.708Z,80.40
2022-12-11T07:48:07.377Z,77.80
2022-12-11T07:51:12.052Z,76.70
2022-12-11T07:54:17.539Z,77.70
2022-12-11T07:57:20.648Z,78.00
2022-12-11T08:00:23.904Z,78.30
2022-12-11T08:03:27.026Z,78.70
2022-12-11T08:06:31.456Z,77.90
2022-12-11T08:09:35.925Z,76.80
2022-12-11T08:12:39.027Z,76.50
2022-12-11T08:15:42.125Z,76.50
2022-12-11T08:18:46.947Z,76.60
2022-12-11T08:21:50.107Z,77.50
2022-12-11T08:24:54.641Z,75.10
2022-12-11T08:27:57.753Z,75.50
2022-12-11T08:31:01.354Z,75.20
2022-12-11T08:34:04.527Z,74.30
2022-12-11T08:37:07.677Z,75.40
2022-12-11T08:40:14.264Z,73.60
2022-12-11T08:43:17.346Z,73.40
2022-12-11T08:46:20.475Z,72.50
2022-12-11T08:49:23.627Z,71.60
2022-12-11T08:52:26.719Z,70.50
2022-12-11T08:55:31.271Z,70.20
2022-12-11T08:58:34.430Z,68.80
2022-12-11T09:01:37.681Z,69.30
2022-12-11T09:04:41.174Z,69.00
2022-12-11T09:07:44.380Z,68.30
2022-12-11T09:10:48.902Z,67.30
2022-12-11T09:13:52.478Z,66.50
2022-12-11T09:16:55.572Z,66.90
2022-12-11T09:19:58.716Z,66.80
2022-12-11T09:23:02.857Z,65.20
2022-12-11T09:26:08.760Z,64.30
2022-12-11T09:29:12.661Z,66.00
2022-12-11T09:32:15.756Z,64.50
2022-12-11T09:35:19.053Z,63.80
2022-12-11T09:38:22.160Z,66.00
2022-12-11T09:41:38.474Z,66.20
2022-12-11T09:44:44.783Z,65.30
2022-12-11T09:47:52.634Z,64.00
2022-12-11T09:50:56.637Z,62.80
2022-12-11T09:54:04.202Z,62.20
2022-12-11T09:57:18.859Z,61.70
2022-12-11T10:00:27.878Z,62.80
2022-12-11T10:04:03.659Z,61.90
2022-12-11T10:07:13.515Z,61.90
2022-12-11T10:10:25.049Z,62.00
2022-12-11T10:13:39.234Z,62.00
2022-12-11T10:16:46.364Z,60.50
2022-12-11T10:19:50.498Z,60.80
2022-12-11T10:22:54.843Z,61.70
2022-12-11T10:26:04.099Z,61.10
2022-12-11T10:29:15.436Z,61.10
2022-12-11T10:32:25.061Z,60.70
2022-12-11T10:35:34.406Z,59.70
2022-12-11T10:38:43.506Z,59.70
2022-12-11T10:41:48.336Z,59.90
2022-12-11T10:45:01.677Z,59.80
2022-12-11T10:48:07.046Z,59.60
2022-12-11T10:51:10.242Z,59.80
2022-12-11T10:54:29.237Z,60.30
2022-12-11T10:57:35.561Z,59.80
2022-12-11T11:00:42.300Z,57.80
2022-12-11T11:03:55.404Z,57.80
2022-12-11T11:07:13.512Z,58.10
2022-12-11T11:10:18.670Z,57.50
2022-12-11T11:13:23.340Z,57.60
2022-12-11T11:16:27.987Z,56.00
2022-12-11T11:19:33.389Z,55.80
2022-12-11T11:22:43.918Z,55.30
2022-12-11T11:25:52.605Z,54.70
2022-12-11T11:28:57.924Z,55.40
2022-12-11T11:32:17.098Z,54.80
2022-12-11T11:35:23.172Z,54.20
2022-12-11T11:38:30.442Z,53.50
2022-12-11T11:41:38.694Z,53.20
2022-12-11T11:44:45.843Z,52.20
2022-12-11T11:47:59.804Z,51.70
2022-12-11T11:51:14.817Z,52.60
2022-12-11T11:54:29.519Z,52.80
2022-12-11T11:57:42.433Z,53.90
2022-12-11T12:00:45.606Z,53.20
2022-12-11T12:03:51.639Z,53.60
2022-12-11T12:07:15.073Z,53.30
2022-12-11T12:10:23.459Z,52.80
2022-12-11T12:13:50.149Z,52.60
2022-12-11T12:17:05.482Z,52.30
2022-12-11T12:20:19.664Z,53.10
2022-12-11T12:23:45.608Z,53.80
2022-12-11T12:26:56.750Z,53.30
2022-12-11T12:30:04.434Z,53.30
2022-12-11T12:33:25.384Z,53.20
2022-12-11T12:36:42.941Z,52.80
2022-12-11T12:39:56.086Z,52.90
2022-12-11T12:43:12.714Z,52.80
2022-12-11T12:46:29.204Z,53.40
2022-12-11T12:49:38.440Z,53.40
2022-12-11T12:52:43.829Z,52.80
2022-12-11T12:55:49.483Z,53.40
2022-12-11T12:58:52.652Z,52.70
2022-12-11T13:01:58.763Z,53.00
2022-12-11T13:05:07.499Z,53.30
2022-12-11T13:08:13.879Z,52.70
2022-12-11T13:11:20.055Z,53.10
2022-12-11T13:14:29.963Z,53.80
2022-12-11T13:17:40.477Z,52.70
2022-12-11T13:20:51.224Z,52.70
2022-12-11T13:23:56.053Z,53.50
2022-12-11T13:27:11.023Z,52.00
2022-12-11T13:30:24.590Z,52.50
2022-12-11T13:33:28.211Z,52.20
2022-12-11T13:36:34.693Z,52.20
2022-12-11T13:39:41.360Z,52.10
2022-12-11T13:42:51.017Z,52.80
2022-12-11T13:45:57.156Z,52.20
2022-12-11T13:49:03.607Z,52.90
2022-12-11T13:52:07.772Z,53.20
2022-12-11T13:55:26.176Z,54.50
2022-12-11T13:58:31.148Z,55.00
2022-12-11T14:01:36.141Z,54.70
2022-12-11T14:04:39.789Z,54.80
2022-12-11T14:07:47.715Z,54.90
2022-12-11T14:10:55.495Z,55.50
2022-12-11T14:14:01.334Z,56.00
2022-12-11T14:17:05.412Z,56.50
2022-12-11T14:20:19.042Z,57.00
2022-12-11T14:23:24.867Z,56.70
2022-12-11T14:26:32.174Z,57.40
2022-12-11T14:29:36.323Z,57.20
2022-12-11T14:32:45.423Z,58.10
2022-12-11T14:35:50.270Z,57.40
2022-12-11T14:38:57.204Z,57.40
2022-12-11T14:42:05.890Z,57.50
2022-12-11T14:45:19.290Z,57.70
2022-12-11T14:48:25.105Z,58.40
2022-12-11T14:51:32.502Z,59.20
2022-12-11T14:54:39.258Z,59.00
2022-12-11T14:57:47.018Z,59.10
2022-12-11T15:00:59.579Z,59.70
2022-12-11T15:04:17.469Z,59.60
2022-12-11T15:07:22.814Z,60.30
2022-12-11T15:10:33.273Z,60.40
2022-12-11T15:13:41.334Z,60.50
2022-12-11T15:16:44.851Z,60.30
2022-12-11T15:19:51.905Z,61.30
2022-12-11T15:22:57.928Z,60.90
2022-12-11T15:26:03.178Z,62.30
2022-12-11T15:29:25.954Z,62.30
2022-12-11T15:32:32.768Z,63.70
2022-12-11T15:35:36.314Z,64.40
2022-12-11T15:38:42.424Z,64.30
2022-12-11T15:41:45.968Z,65.20
2022-12-11T15:44:50.822Z,65.30
2022-12-11T15:47:54.501Z,66.40
2022-12-11T15:50:58.563Z,66.40
2022-12-11T15:54:02.136Z,66.70
2022-12-11T15:57:09.386Z,66.50
2022-12-11T16:00:16.900Z,66.50
2022-12-11T16:03:21.975Z,66.50
2022-12-11T16:06:25.858Z,67.00
2022-12-11T16:09:29.440Z,66.90
2022-12-11T16:12:32.659Z,66.40
2022-12-11T16:15:40.759Z,66.30
2022-12-11T16:18:44.710Z,67.00
2022-12-11T16:21:48.195Z,67.40
2022-12-11T16:24:54.961Z,68.70
2022-12-11T16:27:58.704Z,69.40
2022-12-11T16:31:04.712Z,69.00
2022-12-11T16:34:09.573Z,69.30
2022-12-11T16:37:15.162Z,69.40
2022-12-11T16:40:19.823Z,70.10
2022-12-11T16:43:23.158Z,71.00
2022-12-11T16:46:28.934Z,71.80
2022-12-11T16:49:32.978Z,72.90
2022-12-11T16:52:36.155Z,73.40
2022-12-11T16:55:41.280Z,74.00
2022-12-11T16:58:44.461Z,74.70
2022-12-11T17:01:50.584Z,75.00
2022-12-11T17:04:54.351Z,74.50
2022-12-11T17:07:59.105Z,75.00
2022-12-11T17:11:05.916Z,75.30
2022-12-11T17:14:12.587Z,74.20
2022-12-11T17:17:18.281Z,74.70
2022-12-11T17:20:24.162Z,74.80
2022-12-11T17:23:28.094Z,74.70
2022-12-11T17:26:32.328Z,75.10
2022-12-11T17:29:36.315Z,75.10
2022-12-11T17:32:42.596Z,75.00
2022-12-11T17:35:46.891Z,74.50
2022-12-11T17:38:51.916Z,73.80
2022-12-11T17:41:55.239Z,74.50
2022-12-11T17:44:59.380Z,74.80
2022-12-11T17:48:04.938Z,73.40
2022-12-11T17:51:10.203Z,73.80
2022-12-11T17:54:13.532Z,74.20
2022-12-11T17:57:16.960Z,73.70
2022-12-11T18:00:21.163Z,73.60
2022-12-11T18:03:28.493Z,73.00
2022-12-11T18:06:33.125Z,72.80
2022-12-11T18:09:36.331Z,73.10
2022-12-11T18:12:39.777Z,73.00
2022-12-11T18:15:44.770Z,72.50
2022-12-11T18:18:51.996Z,72.70
2022-12-11T18:21:57.012Z,72.10
2022-12-11T18:25:07.867Z,71.00
2022-12-11T18:28:14.564Z,71.20
2022-12-11T18:31:22.059Z,71.10
2022-12-11T18:34:27.753Z,69.60
2022-12-11T18:37:32.333Z,70.30
2022-12-11T18:40:36.753Z,69.60
2022-12-11T18:43:40.782Z,68.90
2022-12-11T18:46:45.500Z,67.80
2022-12-11T18:49:52.239Z,68.00
2022-12-11T18:52:57.940Z,68.00
2022-12-11T18:56:02.775Z,68.60
2022-12-11T18:59:09.173Z,67.60
2022-12-11T19:02:14.497Z,67.50
2022-12-11T19:05:21.365Z,66.80
2022-12-11T19:08:25.328Z,67.30
2022-12-11T19:11:31.501Z,67.10
2022-12-11T19:14:35.799Z,66.40
2022-12-11T19:17:40.617Z,65.70
2022-12-11T19:20:50.939Z,65.90
2022-12-11T19:23:59.920Z,66.00
2022-12-11T19:27:08.582Z,66.50
2022-12-11T19:30:18.559Z,66.90
2022-12-11T19:33:23.447Z,65.60
2022-12-11T19:36:31.345Z,66.00
2022-12-11T19:39:36.166Z,66.00
2022-12-11T19:42:41.030Z,66.10
2022-12-11T19:45:49.194Z,65.30
2022-12-11T19:48:55.654Z,65.50
2022-12-11T19:52:01.984Z,65.40
2022-12-11T19:55:07.847Z,65.60
2022-12-11T19:58:11.965Z,65.70
2022-12-11T20:01:25.324Z,66.20
2022-12-11T20:04:31.189Z,66.70
2022-12-11T20:07:39.263Z,66.20
2022-12-11T20:10:44.168Z,65.90
2022-12-11T20:13:49.532Z,65.90
2022-12-11T20:17:11.891Z,65.70
2022-12-11T20:20:19.680Z,65.30
2022-12-11T20:23:25.830Z,65.50
2022-12-11T20:26:32.939Z,65.00
2022-12-11T20:29:38.928Z,65.20
2022-12-11T20:32:43.253Z,65.00
2022-12-11T20:35:50.009Z,64.80
2022-12-11T20:38:58.010Z,64.60
2022-12-11T20:42:10.840Z,63.80
2022-12-11T20:45:16.259Z,63.70
2022-12-11T20:48:20.229Z,64.10
2022-12-11T20:51:27.425Z,64.70
2022-12-11T20:54:35.113Z,65.00
2022-12-11T20:57:43.460Z,65.00
2022-12-11T21:00:49.293Z,63.60
2022-12-11T21:03:54.402Z,64.00
2022-12-11T21:07:02.685Z,63.50
2022-12-11T21:10:08.519Z,64.30
2022-12-11T21:13:12.529Z,65.00
2022-12-11T21:16:16.668Z,63.50
2022-12-11T21:19:24.328Z,63.30
2022-12-11T21:22:27.875Z,63.50
2022-12-11T21:25:32.771Z,63.50
2022-12-11T21:28:36.319Z,63.50
2022-12-11T21:31:40.175Z,64.40
2022-12-11T21:34:43.496Z,64.20
2022-12-11T21:37:46.728Z,62.50
2022-12-11T21:40:52.451Z,62.80
2022-12-11T21:47:21.003Z,63.50
2022-12-11T21:50:24.137Z,63.50
2022-12-11T21:53:27.292Z,63.00
2022-12-11T21:56:32.365Z,62.90
2022-12-11T21:59:35.538Z,63.20
2022-12-11T22:02:41.153Z,70.70
2022-12-11T22:05:44.552Z,78.70
2022-12-11T22:08:49.197Z,90.20
2022-12-11T22:11:58.148Z,91.50
2022-12-11T22:15:01.690Z,93.00
2022-12-11T22:18:05.115Z,94.10
2022-12-11T22:21:08.507Z,95.00
2022-12-11T22:24:11.677Z,96.20
2022-12-11T22:27:20.525Z,97.60
2022-12-11T22:30:26.698Z,99.20
2022-12-11T22:33:29.857Z,99.90
2022-12-11T22:36:32.997Z,99.90
2022-12-11T22:39:36.154Z,99.90
2022-12-11T22:42:40.663Z,99.90
2022-12-11T22:45:43.849Z,99.90
2022-12-11T22:48:47.098Z,99.90
2022-12-11T22:51:50.359Z,99.90
2022-12-11T22:54:53.499Z,99.90
2022-12-11T22:57:58.299Z,99.90
2022-12-11T23:01:01.750Z,99.90
2022-12-11T23:04:04.993Z,99.90
2022-12-11T23:07:08.351Z,99.90
2022-12-11T23:10:12.217Z,99.90
2022-12-11T23:13:16.730Z,99.90
2022-12-11T23:16:20.028Z,99.90
2022-12-11T23:19:25.591Z,99.90
2022-12-11T23:22:29.108Z,99.90
2022-12-11T23:25:32.220Z,99.90
2022-12-11T23:28:36.847Z,99.90
2022-12-11T23:31:39.955Z,99.90
2022-12-11T23:34:43.063Z,99.90
2022-12-11T23:37:46.610Z,99.90
2022-12-11T23:40:50.674Z,99.90
2022-12-11T23:43:55.202Z,99.90
2022-12-11T23:46:58.324Z,99.90
2022-12-11T23:50:01.402Z,99.90
2022-12-11T23:53:04.568Z,99.90
2022-12-11T23:56:10.189Z,99.90
2022-12-11T23:59:15.271Z,99.90
